| |
Missouri Department of Transportation

Social Media Facebook Twitter Flickr Instagram YouTube RSS

Current METAR Information for All MoDOT Locations 
AWOS Home - General Info for all Airports
Current AWOS for all Airports - Current METAR for all Airports
Glossary - Disclaimer - Other Links


Automated Weather Observation System
Date: 12-06-2016
 
Location Current METAR Record
HANNIBAL METAR KHAE 061548Z AUTO 31013G18KT 4SM BR OVC004 04/03 A2990 RMK AO2
HARRISONVILLE METAR KLRY 061605Z AUTO 33009KT 10SM CLR 04/M06 A3006 RMK AO2
LEBANON  No current data available
MALDEN  No current data available
MARSHALL METAR KMHL 061609Z AUTO 31017G25KT 10SM CLR 03/M02 A2999 RMK AO2
MARYVILLE  No current data available
MEXICO METAR KMYJ 061559Z AUTO 30007KT 2 1/2SM OVC004 02/01 A2993 RMK AO2 PWINO
MOBERLY METAR KMBY 061559Z AUTO 32011G20KT 10SM BKN014 03/00 A2995 RMK AO2
NEVADA  No current data available
PIEDMONT  No current data available
SIKESTON  No current data available
SULLIVAN METAR KUUV 061559Z AUTO 33005KT 3SM BR OVC004 03/02 A2993 RMK AO2 LTG DSNT E
WARSAW METAR KRAW 061558Z AUTO 33014G19KT 10SM SCT075 02/M04 A3000 RMK AO2
About Us
How Do I...
Contact Us
Missouri Department of Transportation
Central Office
105 W. Capitol Avenue
Jefferson City, MO 65102
1-888-ASK-MODOT (275-6636)
1-866-831-6277 (Motor Carrier Services)
Driver's License Offices
horz_bar
| | |
Missouri State Government
© 2013 Missouri Department of Transportation. All Rights Reserved.   Privacy Policy.
 
 
 
 
RSS FeedYoutubeBlogFlickrTwitter Facebook